Bastrop, LA

10:39 AM CDT on April 25, 2015 (GMT -0500)
Keller (Bonner Ferry Rd) | | Change Station
CLOSE
Current Station
Personal Weather Station
Location: Bastrop, LA
Elevation: 116 ft
Nearby Weather Stations

Elev 116 ft 32.80 °N, 91.92 °W | Updated 4 seconds ago

Overcast
Overcast
73.8 °F
Feels Like 73.8 °F
N
1.0
Wind Variable Wind from SSE
Gusts 6.0 mph

Today
High -- | Low -- °F
--% Chance of Precip.
Yesterday
High -- | Low -- °F
Precip. -- in
6:26 AM 7:44 PM
Waxing Crescent, 47% visible
Pressure 29.71 in
Visibility 3.0 miles
Clouds Overcast 400 ft
Dew Point 74 °F
Humidity 99%
Rainfall 0.11 in
Snow Depth Not available.
UV 3.8 out of 12
Pollen 2.90 out of 12
Air Quality Not available.
Flu Activity Sporadic
METAR KBQP 251515Z AUTO 23005KT 3SM BR OVC004 23/22 A2971 RMK AO2 LTG DSNT S T02260222

More Conditions Fewer Conditions

Pressure 29.71 in
Visibility 3.0 miles
Clouds Overcast 400 ft
Dew Point 74 °F
Humidity 99%
Rainfall 0.11 in
Snow Depth Not available.
UV 3.8 out of 12
Pollen 2.90 out of 12
Air Quality Not available.
Flu Activity Sporadic
METAR KBQP 251515Z AUTO 23005KT 3SM BR OVC004 23/22 A2971 RMK AO2 LTG DSNT S T02260222

More Conditions Fewer Conditions

10-Day Weather Forecast

Almanac

Astronomy

Apr. 25, 2015 Rise Set
Actual Time
Civil Twilight
Nautical Twilight
Astronomical Twilight
Moon
Length of Visible Light
Length of Day
Tomorrow will be .
, % of the Moon is Illuminated

Today's Extremes

State Highs State Lows

Community

WunderPhotos

Upload Photos

1,816,714 photos uploaded!

WunderBlogs® & News

Nearby

Air Quality

  Air Quality AQ Index Pollutant
Not available.

Snow Depth

Station Depth Elevation

Earthquake Activity

City Distance Mag. Time & Date
Minimum magnitude displayed is 2.5.

Coastal Water Temperatures

Place Temperature

Stations

Nearby Weather Stations

Station Location Temp. Windchill Dew Point Humidity Wind Precip. Elev Updated Type